Cairngorm, United Kingdom
Current Conditions -  °F | °C
As of 1:50 AM on Sunday 26 Oct 2014 (Local Time) from EGPE Reporting Station
Clear Clear  
Wind Chill: 50°   Ceiling: Unl
Heat Index: 50°   Visibility: 6mi
Dew Point: 46°   Wind: 25mph
Humidity: 87%   Direction: 220°SW
Pressure: 29.41"   Gusts: NA
Location:  57.12°N, 3.64°W
Report Text: EGPE 260050Z AUTO 22022KT 9999 NCD 10/08 Q0996
Loading
Personal Weather Stations






























Interactive Weather Map
Tropical Storm Tracking
New forecast layout! Learn more

10-Day Weather Forecast

Advertisements
Track Severe Weather on mobile